Dockton, Washington
Current Conditions -  °F | °C
As of 12:53 PM on Thursday 23 Oct 2014 (Local Time) from KSEA Reporting Station
Broken Clouds Broken Clouds  
Wind Chill: 58°   Ceiling: 18000
Heat Index: 58°   Visibility: 10mi
Dew Point: 50°   Wind: 17mph
Humidity: 75%   Direction: 190°S
Pressure: 29.83"   Gusts: 24mph
Location:  47.4122°N, 122.472°W
Report Text: KSEA 231953Z 19015G21KT 10SM FEW015 SCT030 BKN180 14/10 A2983 RMK AO2 RAE1855 SLP106 P0000 T01440100
Loading
Personal Weather Stations






























Interactive Weather Map
Tropical Storm Tracking
New forecast layout! Learn more

10-Day Weather Forecast

Advertisements
Track Severe Weather on mobile